Ouray, Colorado
Current Conditions -  °F | °C
As of 7:15 AM on Friday 19 Dec 2014 (Local Time) from KTEX Reporting Station
Clear Clear  
Wind Chill: -16°   Ceiling: Unl
Heat Index: -11°   Visibility: 10mi
Dew Point: -14°   Wind: 6mph
Humidity: 83%   Direction: 120°ESE
Pressure: 30.21"   Gusts: NA
Location:  38.02°N, 107.67°W
Report Text: KTEX 191415Z AUTO 12005KT 10SM CLR M11/M13 A3021 RMK AO2 T11121135
Loading
Personal Weather Stations






























Interactive Weather Map New forecast layout! Learn more

10-Day Weather Forecast

Advertisements
Track Severe Weather on mobile